createdAt,value
2019-04-22T00:01:45.629Z,12.09
2019-04-22T00:04:22.690Z,12.06
2019-04-22T00:07:07.105Z,12.03
2019-04-22T00:09:44.470Z,12.02
2019-04-22T00:12:14.641Z,12.00
2019-04-22T00:14:48.347Z,11.93
2019-04-22T00:17:23.317Z,11.94
2019-04-22T00:19:50.554Z,11.93
2019-04-22T00:22:26.083Z,11.90
2019-04-22T00:24:55.462Z,11.87
2019-04-22T00:27:30.879Z,11.83
2019-04-22T00:30:02.484Z,11.82
2019-04-22T00:32:30.462Z,11.79
2019-04-22T00:35:02.435Z,11.76
2019-04-22T00:37:40.723Z,11.71
2019-04-22T00:40:10.965Z,11.68
2019-04-22T00:42:36.052Z,11.65
2019-04-22T00:45:08.206Z,11.62
2019-04-22T00:47:41.625Z,11.60
2019-04-22T00:55:12.386Z,11.51
2019-04-22T00:57:38.770Z,11.47
2019-04-22T01:00:11.907Z,11.45
2019-04-22T01:02:44.544Z,11.41
2019-04-22T01:05:07.751Z,11.39
2019-04-22T01:07:40.774Z,11.37
2019-04-22T01:10:12.762Z,11.34
2019-04-22T01:12:39.629Z,11.31
2019-04-22T01:15:09.239Z,11.27
2019-04-22T01:17:38.807Z,11.22
2019-04-22T01:20:25.787Z,11.20
2019-04-22T01:22:42.511Z,11.17
2019-04-22T01:25:10.877Z,11.11
2019-04-22T01:27:34.865Z,11.10
2019-04-22T01:30:03.704Z,11.07
2019-04-22T01:32:30.339Z,11.03
2019-04-22T01:35:07.511Z,10.98
2019-04-22T01:37:43.275Z,10.94
2019-04-22T01:40:16.617Z,10.90
2019-04-22T01:42:53.624Z,10.87
2019-04-22T01:45:22.813Z,10.83
2019-04-22T01:48:05.245Z,10.81
2019-04-22T01:50:20.740Z,10.77
2019-04-22T01:52:52.119Z,10.92
2019-04-22T01:57:50.982Z,10.73
2019-04-22T02:00:11.569Z,10.68
2019-04-22T02:02:49.210Z,10.63
2019-04-22T02:05:19.200Z,10.59
2019-04-22T02:07:48.445Z,10.55
2019-04-22T02:10:19.358Z,10.50
2019-04-22T02:12:48.502Z,10.46
2019-04-22T02:15:16.943Z,10.41
2019-04-22T02:18:10.738Z,10.37
2019-04-22T02:20:19.830Z,10.34
2019-04-22T02:23:43.112Z,10.31
2019-04-22T02:25:55.979Z,10.26
2019-04-22T02:28:33.743Z,10.19
2019-04-22T02:31:16.021Z,10.11
2019-04-22T02:36:19.824Z,9.97
2019-04-22T02:38:48.911Z,9.89
2019-04-22T02:41:15.965Z,9.86
2019-04-22T02:43:49.298Z,9.87
2019-04-22T02:48:48.224Z,9.84
2019-04-22T02:51:02.097Z,9.85
2019-04-22T02:54:13.957Z,9.87
2019-04-22T02:56:12.133Z,9.88
2019-04-22T02:58:47.647Z,9.89
2019-04-22T03:01:05.639Z,9.89
2019-04-22T03:06:25.497Z,9.90
2019-04-22T03:08:39.626Z,9.87
2019-04-22T03:11:15.265Z,9.84
2019-04-22T03:13:40.464Z,9.83
2019-04-22T03:18:41.956Z,9.76
2019-04-22T03:26:16.516Z,9.69
2019-04-22T03:49:37.176Z,9.42
2019-04-22T03:52:05.018Z,9.38
2019-04-22T03:54:40.362Z,9.36
2019-04-22T04:04:32.658Z,9.20
2019-04-22T04:09:32.547Z,9.12
2019-04-22T04:12:12.295Z,9.08
2019-04-22T04:14:35.984Z,9.04
2019-04-22T04:20:03.339Z,8.97
2019-04-22T04:22:19.513Z,8.93
2019-04-22T04:24:48.897Z,8.91
2019-04-22T04:27:24.092Z,8.90
2019-04-22T04:29:56.108Z,8.88
2019-04-22T04:37:09.026Z,8.86
2019-04-22T04:39:40.554Z,8.86
2019-04-22T04:44:50.166Z,8.83
2019-04-22T04:47:11.498Z,8.84
2019-04-22T04:54:35.879Z,8.89
2019-04-22T04:56:57.073Z,8.90
2019-04-22T04:59:57.844Z,8.90
2019-04-22T05:02:02.405Z,8.92
2019-04-22T05:04:48.735Z,8.95
2019-04-22T05:09:47.974Z,9.01
2019-04-22T05:12:13.064Z,9.06
2019-04-22T05:14:51.767Z,9.11
2019-04-22T05:17:10.533Z,9.11
2019-04-22T05:22:06.053Z,9.17
2019-04-22T05:24:29.795Z,9.20
2019-04-22T05:27:05.385Z,9.19
2019-04-22T05:30:00.122Z,9.19
2019-04-22T05:31:56.935Z,9.20
2019-04-22T05:34:29.187Z,9.36
2019-04-22T05:37:01.226Z,9.41
2019-04-22T05:39:45.482Z,9.37
2019-04-22T05:42:04.197Z,9.35
2019-04-22T05:44:29.392Z,9.31
2019-04-22T05:46:52.771Z,9.36
2019-04-22T05:49:33.254Z,9.40
2019-04-22T05:51:55.067Z,9.50
2019-04-22T05:54:30.437Z,9.58
2019-04-22T05:56:51.666Z,9.59
2019-04-22T05:59:36.219Z,9.66
2019-04-22T06:04:29.724Z,9.77
2019-04-22T06:07:00.108Z,9.80
2019-04-22T06:09:30.689Z,9.85
2019-04-22T06:11:58.974Z,9.93
2019-04-22T06:14:34.531Z,9.95
2019-04-22T06:17:12.390Z,10.07
2019-04-22T06:19:38.235Z,10.14
2019-04-22T06:22:15.469Z,10.19
2019-04-22T06:24:43.696Z,10.28
2019-04-22T06:27:14.568Z,10.45
2019-04-22T06:29:37.837Z,10.52
2019-04-22T06:35:00.449Z,10.61
2019-04-22T06:37:30.369Z,10.68
2019-04-22T06:39:57.359Z,10.88
2019-04-22T06:45:35.098Z,11.09
2019-04-22T06:50:47.563Z,11.12
2019-04-22T06:53:17.443Z,11.21
2019-04-22T06:55:48.214Z,11.27
2019-04-22T06:58:15.374Z,11.25
2019-04-22T07:00:49.426Z,11.26
2019-04-22T07:05:49.465Z,11.40
2019-04-22T07:08:45.701Z,11.37
2019-04-22T07:16:00.347Z,11.32
2019-04-22T07:20:57.872Z,11.38
2019-04-22T07:23:41.716Z,11.39
2019-04-22T07:25:53.391Z,11.34
2019-04-22T07:28:20.109Z,11.34
2019-04-22T07:30:52.840Z,11.59
2019-04-22T07:36:12.317Z,11.76
2019-04-22T07:45:56.570Z,11.72
2019-04-22T07:48:33.314Z,11.84
2019-04-22T07:51:02.612Z,11.89
2019-04-22T07:53:23.008Z,11.98
2019-04-22T07:55:55.431Z,12.14
2019-04-22T07:58:23.878Z,12.19
2019-04-22T08:00:57.781Z,12.07
2019-04-22T08:03:28.989Z,12.12
2019-04-22T08:06:05.450Z,12.09
2019-04-22T08:08:25.829Z,12.10
2019-04-22T08:11:06.879Z,12.17
2019-04-22T08:13:24.770Z,12.27
2019-04-22T08:15:58.752Z,12.46
2019-04-22T08:18:28.903Z,12.76
2019-04-22T08:20:58.889Z,12.83
2019-04-22T08:23:33.626Z,12.88
2019-04-22T08:25:54.256Z,12.54
2019-04-22T08:28:32.098Z,12.67
2019-04-22T08:31:02.084Z,12.98
2019-04-22T08:33:29.263Z,13.16
2019-04-22T08:36:10.520Z,13.39
2019-04-22T08:38:39.610Z,13.28
2019-04-22T08:44:10.553Z,12.95
2019-04-22T08:46:33.109Z,12.85
2019-04-22T08:49:00.728Z,12.75
2019-04-22T08:51:30.866Z,12.65
2019-04-22T09:04:02.240Z,12.95
2019-04-22T09:06:56.979Z,12.97
2019-04-22T09:09:06.193Z,12.81
2019-04-22T09:16:37.308Z,13.03
2019-04-22T09:19:10.686Z,13.12
2019-04-22T09:24:06.875Z,13.30
2019-04-22T09:26:36.146Z,13.52
2019-04-22T09:29:04.999Z,13.48
2019-04-22T09:31:35.961Z,13.73
2019-04-22T09:33:59.572Z,14.02
2019-04-22T09:36:33.959Z,14.13
2019-04-22T09:39:02.903Z,14.13
2019-04-22T09:41:42.917Z,14.07
2019-04-22T09:44:02.378Z,13.97
2019-04-22T09:46:39.033Z,13.77
2019-04-22T09:51:37.351Z,14.06
2019-04-22T09:54:16.728Z,14.07
2019-04-22T09:56:37.326Z,14.07
2019-04-22T09:59:05.109Z,13.85
2019-04-22T10:01:39.043Z,13.93
2019-04-22T10:06:33.773Z,14.35
2019-04-22T10:09:27.183Z,14.35
2019-04-22T10:11:39.168Z,14.45
2019-04-22T10:14:05.870Z,14.15
2019-04-22T10:21:46.299Z,13.87
2019-04-22T10:24:09.291Z,13.94
2019-04-22T10:26:39.403Z,13.94
2019-04-22T10:29:15.702Z,14.05
2019-04-22T10:31:46.249Z,14.19
2019-04-22T10:33:56.068Z,14.44
2019-04-22T10:36:13.567Z,14.77
2019-04-22T10:38:42.246Z,14.99
2019-04-22T10:41:10.521Z,14.77
2019-04-22T10:43:39.191Z,14.64
2019-04-22T10:46:08.204Z,14.26
2019-04-22T10:48:36.719Z,14.06
2019-04-22T10:51:04.822Z,14.16
2019-04-22T10:53:33.398Z,14.22
2019-04-22T10:56:03.023Z,14.05
2019-04-22T10:58:32.743Z,14.00
2019-04-22T11:01:01.142Z,14.14
2019-04-22T11:03:31.242Z,14.05
2019-04-22T11:06:01.150Z,14.46
2019-04-22T11:08:40.241Z,14.97
2019-04-22T11:11:16.735Z,14.97
2019-04-22T11:13:29.765Z,14.86
2019-04-22T11:15:58.375Z,14.86
2019-04-22T11:18:27.682Z,15.14
2019-04-22T11:20:55.841Z,15.14
2019-04-22T11:23:24.675Z,15.33
2019-04-22T11:25:54.080Z,15.33
2019-04-22T11:28:23.354Z,15.29
2019-04-22T11:30:52.334Z,15.67
2019-04-22T11:33:20.691Z,15.73
2019-04-22T11:35:50.127Z,15.73
2019-04-22T11:38:19.095Z,15.75
2019-04-22T11:40:51.732Z,15.99
2019-04-22T11:43:17.042Z,15.97
2019-04-22T11:45:46.979Z,16.05
2019-04-22T11:48:15.482Z,15.72
2019-04-22T11:50:44.064Z,15.55
2019-04-22T11:53:13.143Z,15.54
2019-04-22T11:55:42.567Z,15.32
2019-04-22T11:58:12.894Z,15.29
2019-04-22T12:00:43.030Z,15.29
2019-04-22T12:03:12.513Z,15.11
2019-04-22T12:05:41.736Z,15.34
2019-04-22T12:08:11.080Z,15.35
2019-04-22T12:10:47.138Z,15.41
2019-04-22T12:13:10.297Z,15.64
2019-04-22T12:15:40.804Z,15.80
2019-04-22T12:18:11.204Z,16.12
2019-04-22T12:20:39.441Z,16.36
2019-04-22T12:23:09.281Z,16.25
2019-04-22T12:25:46.487Z,16.53
2019-04-22T12:28:09.159Z,16.43
2019-04-22T12:30:39.344Z,16.54
2019-04-22T12:33:11.026Z,16.68
2019-04-22T12:35:38.773Z,16.65
2019-04-22T12:38:10.253Z,16.59
2019-04-22T12:40:46.764Z,16.42
2019-04-22T12:43:10.692Z,16.42
2019-04-22T12:45:38.598Z,16.56
2019-04-22T12:48:06.759Z,16.36
2019-04-22T12:50:38.468Z,16.36
2019-04-22T12:53:10.912Z,16.38
2019-04-22T12:55:37.482Z,16.36
2019-04-22T12:58:07.641Z,16.62
2019-04-22T13:00:38.346Z,16.88
2019-04-22T13:03:07.403Z,16.80
2019-04-22T13:05:35.737Z,16.80
2019-04-22T13:08:05.456Z,16.80
2019-04-22T13:10:45.421Z,17.04
2019-04-22T13:13:05.155Z,17.10
2019-04-22T13:15:33.185Z,17.39
2019-04-22T13:18:12.841Z,17.81
2019-04-22T13:20:32.277Z,18.26
2019-04-22T13:23:02.112Z,18.26
2019-04-22T13:25:32.251Z,18.38
2019-04-22T13:28:00.994Z,18.67
2019-04-22T13:30:32.465Z,18.88
2019-04-22T13:33:02.836Z,18.92
2019-04-22T13:35:31.838Z,19.14
2019-04-22T13:38:02.020Z,19.16
2019-04-22T13:40:31.089Z,19.17
2019-04-22T13:42:59.032Z,19.17
2019-04-22T13:45:27.636Z,19.11
2019-04-22T13:48:11.124Z,19.21
2019-04-22T13:51:00.929Z,19.18
2019-04-22T13:54:18.498Z,19.31
2019-04-22T13:58:16.086Z,19.25
2019-04-22T14:00:31.179Z,19.40
2019-04-22T14:03:18.751Z,19.58
2019-04-22T14:05:48.810Z,19.56
2019-04-22T14:08:18.452Z,19.70
2019-04-22T14:10:48.230Z,20.03
2019-04-22T14:13:16.411Z,20.15
2019-04-22T14:15:44.772Z,20.17
2019-04-22T14:18:12.972Z,20.23
2019-04-22T14:20:40.975Z,19.97
2019-04-22T14:23:15.962Z,20.02
2019-04-22T14:25:46.217Z,19.98
2019-04-22T14:28:17.588Z,20.12
2019-04-22T14:30:46.144Z,20.07
2019-04-22T14:33:16.072Z,20.23
2019-04-22T14:35:45.753Z,20.29
2019-04-22T14:38:14.223Z,20.35
2019-04-22T14:40:43.533Z,20.47
2019-04-22T14:43:37.376Z,20.34
2019-04-22T14:48:42.047Z,20.17
2019-04-22T14:51:05.997Z,19.72
2019-04-22T14:53:31.023Z,19.48
2019-04-22T14:55:42.426Z,19.63
2019-04-22T14:58:11.009Z,19.33
2019-04-22T15:00:40.032Z,19.40
2019-04-22T15:03:08.337Z,19.51
2019-04-22T15:05:36.580Z,19.69
2019-04-22T15:08:04.596Z,19.90
2019-04-22T15:10:33.730Z,20.08
2019-04-22T15:13:02.963Z,19.92
2019-04-22T15:16:03.046Z,20.01
2019-04-22T15:18:49.680Z,20.05
2019-04-22T15:21:20.746Z,20.22
2019-04-22T15:23:50.767Z,20.28
2019-04-22T15:26:20.331Z,20.28
2019-04-22T15:28:49.386Z,20.28
2019-04-22T15:31:17.669Z,20.44
2019-04-22T15:33:49.875Z,20.38
2019-04-22T15:36:15.564Z,20.46
2019-04-22T15:38:45.021Z,20.48
2019-04-22T15:41:14.676Z,20.48
2019-04-22T15:43:43.679Z,20.33
2019-04-22T15:46:12.010Z,20.39
2019-04-22T15:48:42.062Z,20.42
2019-04-22T15:51:10.954Z,20.37
2019-04-22T15:53:39.891Z,20.50
2019-04-22T15:56:08.772Z,20.57
2019-04-22T15:58:37.465Z,20.68
2019-04-22T16:01:12.993Z,20.70
2019-04-22T16:03:36.807Z,20.58
2019-04-22T16:06:06.104Z,20.51
2019-04-22T16:08:38.730Z,20.35
2019-04-22T16:11:06.825Z,20.09
2019-04-22T16:13:38.054Z,19.89
2019-04-22T16:16:05.191Z,19.51
2019-04-22T16:18:36.128Z,19.32
2019-04-22T16:21:04.955Z,19.18
2019-04-22T16:23:40.413Z,18.97
2019-04-22T16:26:26.663Z,18.89
2019-04-22T16:28:57.622Z,18.79
2019-04-22T16:31:25.068Z,18.90
2019-04-22T16:33:54.354Z,18.59
2019-04-22T16:36:22.995Z,18.73
2019-04-22T16:38:51.224Z,18.58
2019-04-22T16:41:19.367Z,18.65
2019-04-22T16:43:48.838Z,18.71
2019-04-22T16:46:17.251Z,18.76
2019-04-22T16:48:45.554Z,18.97
2019-04-22T16:51:13.915Z,19.01
2019-04-22T16:53:43.238Z,19.06
2019-04-22T16:56:12.869Z,19.17
2019-04-22T16:58:43.103Z,19.23
2019-04-22T17:01:30.684Z,19.20
2019-04-22T17:04:24.809Z,19.18
2019-04-22T17:06:53.514Z,19.00
2019-04-22T17:09:23.682Z,18.81
2019-04-22T17:11:52.277Z,18.71
2019-04-22T17:14:29.702Z,18.70
2019-04-22T17:16:52.632Z,18.62
2019-04-22T17:19:21.641Z,18.40
2019-04-22T17:21:49.998Z,18.45
2019-04-22T17:24:19.422Z,18.32
2019-04-22T17:26:48.424Z,18.26
2019-04-22T17:29:16.866Z,18.30
2019-04-22T17:31:52.238Z,18.27
2019-04-22T17:34:15.806Z,18.12
2019-04-22T17:36:46.266Z,18.09
2019-04-22T17:39:30.444Z,17.98
2019-04-22T17:42:06.972Z,17.99
2019-04-22T17:44:42.331Z,17.81
2019-04-22T17:47:16.675Z,17.76
2019-04-22T17:49:53.750Z,17.76
2019-04-22T17:52:24.947Z,17.63
2019-04-22T17:54:51.581Z,17.63
2019-04-22T17:57:24.167Z,17.62
2019-04-22T17:59:56.810Z,17.48
2019-04-22T18:02:25.288Z,17.48
2019-04-22T18:04:45.717Z,17.47
2019-04-22T18:07:37.138Z,17.39
2019-04-22T18:10:23.943Z,17.34
2019-04-22T18:17:32.487Z,17.25
2019-04-22T18:19:53.233Z,17.23
2019-04-22T18:22:43.392Z,17.12
2019-04-22T18:25:11.383Z,17.13
2019-04-22T18:27:57.368Z,16.88
2019-04-22T18:30:16.732Z,16.88
2019-04-22T18:32:52.067Z,16.82
2019-04-22T18:35:20.926Z,16.97
2019-04-22T18:37:55.736Z,17.18
2019-04-22T18:40:24.337Z,17.18
2019-04-22T18:42:58.422Z,17.30
2019-04-22T18:45:35.799Z,17.20
2019-04-22T18:47:49.095Z,17.21
2019-04-22T18:50:34.090Z,17.31
2019-04-22T18:53:11.008Z,17.33
2019-04-22T18:55:34.821Z,17.19
2019-04-22T18:58:11.671Z,17.06
2019-04-22T19:00:32.325Z,16.75
2019-04-22T19:03:08.907Z,16.54
2019-04-22T19:05:51.699Z,16.44
2019-04-22T19:16:09.781Z,16.17
2019-04-22T19:18:31.981Z,16.09
2019-04-22T19:20:57.696Z,16.05
2019-04-22T19:23:30.214Z,16.05
2019-04-22T19:25:55.682Z,15.94
2019-04-22T19:28:39.474Z,15.85
2019-04-22T19:31:05.587Z,16.13
2019-04-22T19:33:28.834Z,16.19
2019-04-22T19:36:11.062Z,16.11
2019-04-22T19:38:25.314Z,15.97
2019-04-22T19:43:32.631Z,15.77
2019-04-22T19:46:01.960Z,15.73
2019-04-22T19:48:40.459Z,15.68
2019-04-22T19:51:11.121Z,15.70
2019-04-22T19:53:40.468Z,15.64
2019-04-22T19:56:03.589Z,15.54
2019-04-22T19:58:37.431Z,15.44
2019-04-22T20:01:47.236Z,15.46
2019-04-22T20:04:34.637Z,15.45
2019-04-22T20:07:11.305Z,15.37
2019-04-22T20:09:43.495Z,15.34
2019-04-22T20:12:04.462Z,15.23
2019-04-22T20:14:40.247Z,15.23
2019-04-22T20:17:11.431Z,15.18
2019-04-22T20:19:45.903Z,15.24
2019-04-22T20:22:09.700Z,15.23
2019-04-22T20:24:27.735Z,15.07
2019-04-22T20:27:16.358Z,15.07
2019-04-22T20:29:42.114Z,15.09
2019-04-22T20:32:15.655Z,15.00
2019-04-22T20:34:44.583Z,15.07
2019-04-22T20:37:17.791Z,15.42
2019-04-22T20:39:45.569Z,15.18
2019-04-22T20:42:22.761Z,15.18
2019-04-22T20:44:45.971Z,14.98
2019-04-22T20:47:09.145Z,14.90
2019-04-22T20:49:41.621Z,14.79
2019-04-22T20:52:19.306Z,14.73
2019-04-22T20:54:44.874Z,14.64
2019-04-22T20:57:09.542Z,14.63
2019-04-22T20:59:44.264Z,14.57
2019-04-22T21:02:13.518Z,14.54
2019-04-22T21:04:40.869Z,14.53
2019-04-22T21:07:09.027Z,14.52
2019-04-22T21:09:47.210Z,14.44
2019-04-22T21:12:12.569Z,14.46
2019-04-22T21:14:53.302Z,14.42
2019-04-22T21:17:17.389Z,14.32
2019-04-22T21:19:54.728Z,14.32
2019-04-22T21:22:24.230Z,14.23
2019-04-22T21:24:46.060Z,14.02
2019-04-22T21:27:21.043Z,14.02
2019-04-22T21:29:43.627Z,14.05
2019-04-22T21:32:21.418Z,13.91
2019-04-22T21:34:54.063Z,13.91
2019-04-22T21:37:20.543Z,13.96
2019-04-22T21:39:43.561Z,13.87
2019-04-22T21:42:15.381Z,13.83
2019-04-22T21:44:45.696Z,13.86
2019-04-22T21:47:23.804Z,13.83
2019-04-22T21:49:56.672Z,13.73
2019-04-22T21:52:26.022Z,13.67
2019-04-22T21:54:56.351Z,13.68
2019-04-22T21:57:32.120Z,13.68
2019-04-22T22:00:04.475Z,13.55
2019-04-22T22:02:39.363Z,13.45
2019-04-22T22:04:59.005Z,13.45
2019-04-22T22:07:20.103Z,13.37
2019-04-22T22:10:04.380Z,13.37
2019-04-22T22:12:37.767Z,13.31
2019-04-22T22:15:08.718Z,13.25
2019-04-22T22:17:31.119Z,13.28
2019-04-22T22:20:20.801Z,13.20
2019-04-22T22:22:59.974Z,13.15
2019-04-22T22:25:24.095Z,13.13
2019-04-22T22:27:47.460Z,13.13
2019-04-22T22:30:43.152Z,13.07
2019-04-22T22:33:04.078Z,13.07
2019-04-22T22:35:29.696Z,12.91
2019-04-22T22:38:01.442Z,12.91
2019-04-22T22:40:14.713Z,12.91
2019-04-22T22:42:43.699Z,12.84
2019-04-22T22:45:19.888Z,12.95
2019-04-22T22:48:07.341Z,12.92
2019-04-22T22:50:27.722Z,12.89
2019-04-22T22:53:15.383Z,12.89
2019-04-22T22:55:26.469Z,12.72
2019-04-22T22:58:06.125Z,12.72
2019-04-22T23:00:33.841Z,12.75
2019-04-22T23:03:27.561Z,12.76
2019-04-22T23:05:37.681Z,12.71
2019-04-22T23:08:09.503Z,12.61
2019-04-22T23:10:44.016Z,12.54
2019-04-22T23:13:16.157Z,12.50
2019-04-22T23:15:27.707Z,12.45
2019-04-22T23:17:45.586Z,12.45
2019-04-22T23:20:18.567Z,12.36
2019-04-22T23:23:07.638Z,12.30
2019-04-22T23:25:45.036Z,12.28
2019-04-22T23:28:26.592Z,12.19
2019-04-22T23:31:12.091Z,12.12
2019-04-22T23:33:54.728Z,12.14
2019-04-22T23:36:45.895Z,12.07
2019-04-22T23:39:17.159Z,12.03
2019-04-22T23:42:08.984Z,11.96
2019-04-22T23:44:24.028Z,11.96
2019-04-22T23:47:04.902Z,11.91
2019-04-22T23:49:32.535Z,11.94
2019-04-22T23:52:16.301Z,11.85
2019-04-22T23:54:45.972Z,11.84
2019-04-22T23:57:09.021Z,11.84
